Time;durP1;ratioP1;P1;durP2;ratioP2;P2;SDS_P1;SDS_P2;PMS_P1;PMS_P2;Temp;Humidity;BMP_temperature;BMP_pressure;BME280_temperature;BME280_humidity;BME280_pressure;Samples;Min_cycle;Max_cycle;Signal;HPM_P1;HPM_P2
2022/02/01 00:01:03;;;;;;;23.30;11.57;;;3.30;1.00;;;;;;5130045;27;20772;-74
2022/02/01 00:03:33;;;;;;;25.50;12.60;;;3.30;1.00;;;;;;5121905;27;20200;-74
2022/02/01 00:06:09;;;;;;;30.73;13.17;;;3.30;1.00;;;;;;5129717;27;20719;-74
2022/02/01 00:08:42;;;;;;;26.70;12.57;;;3.30;99.90;;;;;;5131845;27;20299;-74
2022/02/01 00:11:22;;;;;;;25.07;12.53;;;3.30;1.00;;;;;;5130499;27;20192;-74
2022/02/01 00:13:59;;;;;;;27.80;12.53;;;3.30;1.00;;;;;;5129737;27;20200;-74
2022/02/01 00:19:34;;;;;;;28.83;12.63;;;3.30;1.00;;;;;;5126196;28;20200;-74
2022/02/01 00:33:28;;;;;;;28.53;13.13;;;3.30;1.00;;;;;;5130601;28;20295;-75
2022/02/01 00:36:00;;;;;;;27.93;12.63;;;3.30;1.00;;;;;;5130804;28;20640;-75
2022/02/01 00:38:33;;;;;;;31.17;12.90;;;3.30;1.00;;;;;;5130406;28;20204;-75
2022/02/01 00:41:04;;;;;;;26.10;12.83;;;3.30;1.00;;;;;;5130617;28;20681;-75
2022/02/01 00:43:31;;;;;;;30.77;13.67;;;3.30;1.00;;;;;;5131648;28;20647;-68
2022/02/01 00:46:00;;;;;;;28.03;13.60;;;3.30;1.00;;;;;;5130528;27;20669;-68
2022/02/01 00:48:29;;;;;;;27.30;13.40;;;3.30;1.00;;;;;;5129945;28;20203;-68
2022/02/01 00:50:56;;;;;;;27.43;14.00;;;3.30;1.00;;;;;;5131160;28;20544;-68
2022/02/01 00:53:27;;;;;;;30.30;13.93;;;3.30;1.00;;;;;;5129791;27;20633;-68
2022/02/01 00:55:54;;;;;;;32.27;14.90;;;3.30;1.00;;;;;;5130367;28;20208;-68
2022/02/01 00:58:22;;;;;;;28.90;14.47;;;3.30;1.00;;;;;;5129035;28;20212;-68
2022/02/01 01:00:49;;;;;;;29.53;14.60;;;3.30;1.00;;;;;;5128388;27;20257;-68
2022/02/01 01:03:16;;;;;;;28.90;14.23;;;3.30;1.00;;;;;;5129340;28;20197;-68
2022/02/01 01:05:45;;;;;;;27.90;13.73;;;3.30;20.40;;;;;;5129914;28;20718;-69
2022/02/01 01:08:12;;;;;;;30.10;13.40;;;3.30;55.90;;;;;;5130847;28;20650;-68
2022/02/01 01:10:40;;;;;;;23.70;11.43;;;3.30;99.90;;;;;;5129718;28;20249;-68
2022/02/01 01:13:18;;;;;;;24.93;12.43;;;3.20;99.90;;;;;;5130340;28;20284;-69
2022/02/01 01:15:58;;;;;;;23.80;11.50;;;3.30;99.90;;;;;;5130648;28;20211;-68
2022/02/01 01:52:46;;;;;;;25.03;11.07;;;3.30;99.90;;;;;;5048748;28;20191;-68
2022/02/01 01:54:36;;;;;;;22.00;10.47;;;3.50;99.90;;;;;;5133632;27;20244;-68
2022/02/01 01:57:03;;;;;;;20.00;9.67;;;3.50;99.90;;;;;;5131475;27;20188;-68
2022/02/01 01:59:30;;;;;;;18.70;9.60;;;3.50;99.90;;;;;;5132735;27;20237;-68
2022/02/01 02:01:57;;;;;;;24.77;9.63;;;3.40;99.90;;;;;;5133921;27;20285;-68
2022/02/01 02:04:24;;;;;;;22.30;9.00;;;3.40;99.90;;;;;;5133590;27;20216;-68
2022/02/01 02:06:52;;;;;;;23.50;9.47;;;3.50;99.90;;;;;;5129686;27;20602;-69
2022/02/01 02:09:20;;;;;;;21.27;8.60;;;3.50;99.90;;;;;;5126763;27;20214;-69
2022/02/01 02:11:53;;;;;;;22.57;8.50;;;3.50;99.90;;;;;;5133766;27;20619;-68
2022/02/01 02:14:21;;;;;;;17.73;8.67;;;3.50;99.90;;;;;;5133556;27;20231;-68
2022/02/01 02:16:50;;;;;;;19.50;8.40;;;3.50;99.90;;;;;;5133387;27;20248;-68
2022/02/01 02:19:18;;;;;;;18.03;7.00;;;3.50;99.90;;;;;;5132482;27;20250;-69
2022/02/01 02:21:51;;;;;;;15.17;6.77;;;3.50;99.90;;;;;;5114436;27;20269;-68
2022/02/01 02:24:19;;;;;;;17.43;5.70;;;3.50;99.90;;;;;;5131708;27;20212;-68
2022/02/01 02:26:48;;;;;;;14.77;5.40;;;3.50;99.90;;;;;;5133292;27;20201;-69
2022/02/01 02:29:15;;;;;;;13.80;5.53;;;3.50;99.90;;;;;;5131701;27;20211;-68
2022/02/01 02:31:43;;;;;;;11.77;5.30;;;3.50;99.90;;;;;;5133296;27;20224;-68
2022/02/01 02:34:13;;;;;;;11.77;5.33;;;3.50;99.90;;;;;;5132005;27;20196;-68
2022/02/01 02:36:44;;;;;;;16.63;5.03;;;3.50;99.90;;;;;;5132965;27;20204;-69
2022/02/01 02:39:24;;;;;;;12.40;5.53;;;3.50;99.90;;;;;;5132713;27;20253;-69
2022/02/01 02:42:04;;;;;;;11.43;5.23;;;3.50;99.90;;;;;;5132230;27;20791;-68
2022/02/01 02:47:16;;;;;;;12.63;5.00;;;3.50;99.90;;;;;;5133031;27;20346;-69
2022/02/01 02:49:43;;;;;;;14.53;4.33;;;3.50;99.90;;;;;;5132722;27;20238;-69
2022/02/01 02:52:10;;;;;;;15.57;3.47;;;3.50;99.90;;;;;;5129950;27;20193;-69
2022/02/01 02:54:39;;;;;;;14.80;5.33;;;3.40;99.90;;;;;;5132466;27;20208;-69
2022/02/01 02:57:07;;;;;;;14.77;3.07;;;3.40;99.90;;;;;;5131228;27;20249;-68
2022/02/01 02:59:35;;;;;;;11.17;3.03;;;3.40;99.90;;;;;;5132189;27;20216;-68
2022/02/01 03:02:05;;;;;;;9.10;2.73;;;3.40;99.90;;;;;;5130398;27;20735;-68
2022/02/01 03:04:34;;;;;;;10.90;2.60;;;3.40;99.90;;;;;;5131166;27;20200;-69
2022/02/01 03:07:02;;;;;;;13.77;2.57;;;3.40;99.90;;;;;;5132798;27;20705;-69
2022/02/01 03:09:31;;;;;;;14.40;3.63;;;3.30;99.90;;;;;;5131163;27;20197;-68
2022/02/01 03:12:02;;;;;;;18.30;2.60;;;3.30;99.90;;;;;;5132292;27;20194;-68
2022/02/01 03:14:43;;;;;;;15.73;2.73;;;3.30;99.90;;;;;;5132231;27;20260;-69
2022/02/01 03:17:19;;;;;;;13.63;2.97;;;3.20;99.90;;;;;;5132808;27;20212;-68
2022/02/01 03:19:49;;;;;;;11.63;2.80;;;3.20;99.90;;;;;;5131138;27;20211;-69
2022/02/01 03:22:18;;;;;;;13.47;2.90;;;3.20;99.90;;;;;;5128636;27;20699;-68
2022/02/01 03:24:45;;;;;;;20.87;4.40;;;3.20;99.90;;;;;;5129689;27;20201;-68
2022/02/01 03:27:14;;;;;;;14.40;2.40;;;3.20;99.90;;;;;;5130571;27;20200;-68
2022/02/01 03:29:41;;;;;;;14.03;2.47;;;3.30;45.90;;;;;;5131766;27;20200;-68
2022/02/01 03:32:09;;;;;;;12.00;2.53;;;3.30;6.10;;;;;;5132150;27;20271;-68
2022/02/01 03:34:36;;;;;;;23.23;3.30;;;3.30;1.00;;;;;;5131514;27;20260;-68
2022/02/01 03:37:04;;;;;;;12.07;2.67;;;3.20;1.00;;;;;;5131049;27;20204;-68
2022/02/01 03:39:31;;;;;;;14.50;3.43;;;3.30;1.00;;;;;;5130365;27;20277;-68
2022/02/01 03:41:58;;;;;;;14.97;3.63;;;3.30;1.00;;;;;;5131276;27;20277;-69
2022/02/01 03:44:26;;;;;;;15.77;2.53;;;3.30;1.00;;;;;;5130667;27;20204;-69
2022/02/01 03:47:01;;;;;;;22.00;2.83;;;3.30;1.00;;;;;;5130133;27;20200;-69
2022/02/01 03:49:32;;;;;;;17.33;2.33;;;3.30;1.00;;;;;;5131513;27;20520;-68
2022/02/01 03:51:59;;;;;;;11.93;2.27;;;3.40;99.90;;;;;;5131053;27;20200;-68
2022/02/01 03:54:28;;;;;;;13.43;2.47;;;3.30;99.90;;;;;;5130980;27;20204;-69
2022/02/01 03:56:56;;;;;;;11.07;2.50;;;3.30;99.90;;;;;;5130183;27;20262;-69
2022/02/01 03:59:23;;;;;;;18.30;2.97;;;3.40;1.00;;;;;;5131741;27;20188;-68
2022/02/01 04:01:55;;;;;;;16.67;3.53;;;3.40;1.00;;;;;;5115357;27;20213;-68
2022/02/01 04:04:23;;;;;;;15.13;2.23;;;3.40;1.00;;;;;;5129698;27;20326;-68
2022/02/01 04:06:50;;;;;;;16.03;2.60;;;3.50;1.00;;;;;;5132163;27;20197;-68
2022/02/01 04:09:17;;;;;;;16.20;2.77;;;3.50;1.00;;;;;;5131575;27;20200;-68
2022/02/01 04:11:44;;;;;;;21.53;4.80;;;3.50;1.00;;;;;;5132213;27;20339;-69
2022/02/01 04:14:16;;;;;;;14.73;2.33;;;3.50;1.00;;;;;;5131158;27;20648;-69
2022/02/01 04:16:43;;;;;;;17.00;4.07;;;3.50;99.90;;;;;;5131492;27;20200;-69
2022/02/01 04:19:12;;;;;;;21.37;4.00;;;3.60;99.90;;;;;;5130379;27;20208;-69
2022/02/01 04:21:43;;;;;;;10.73;2.40;;;3.60;16.30;;;;;;5132486;28;20224;-69
2022/02/01 04:24:10;;;;;;;15.73;3.27;;;3.60;1.00;;;;;;5132518;28;20247;-69
2022/02/01 04:26:37;;;;;;;19.27;4.23;;;3.60;1.00;;;;;;5131439;28;20241;-69
2022/02/01 04:29:04;;;;;;;14.73;3.20;;;3.60;81.60;;;;;;5131613;28;20200;-69
2022/02/01 04:31:31;;;;;;;14.17;2.77;;;3.60;99.90;;;;;;5130411;28;20196;-69
2022/02/01 04:33:58;;;;;;;14.03;2.43;;;3.60;11.40;;;;;;5131730;28;20196;-69
2022/02/01 04:36:26;;;;;;;15.13;3.37;;;3.50;1.00;;;;;;5131709;28;20268;-69
2022/02/01 04:38:57;;;;;;;15.47;2.43;;;3.60;1.00;;;;;;5131884;28;20340;-69
2022/02/01 04:41:25;;;;;;;16.17;3.30;;;3.60;1.00;;;;;;5131327;28;20318;-69
2022/02/01 04:43:52;;;;;;;14.33;2.50;;;3.50;1.00;;;;;;5131606;28;20200;-69
2022/02/01 04:46:19;;;;;;;12.77;2.07;;;3.50;1.00;;;;;;5131803;28;20208;-69
2022/02/01 04:48:47;;;;;;;15.40;2.43;;;3.50;1.00;;;;;;5131918;28;20241;-69
2022/02/01 04:51:14;;;;;;;15.77;3.23;;;3.40;1.00;;;;;;5132013;28;20200;-69
2022/02/01 04:53:43;;;;;;;16.53;2.60;;;3.30;99.90;;;;;;5131712;28;20579;-69
2022/02/01 04:56:10;;;;;;;14.67;2.50;;;3.30;99.90;;;;;;5131797;28;20520;-69
2022/02/01 04:58:37;;;;;;;17.60;2.60;;;3.20;99.90;;;;;;5131451;27;20245;-69
2022/02/01 05:01:04;;;;;;;12.97;3.00;;;3.20;1.00;;;;;;5134799;27;20654;-69
2022/02/01 05:03:31;;;;;;;19.67;3.13;;;3.20;1.00;;;;;;5135501;27;20196;-69
2022/02/01 05:05:58;;;;;;;18.43;3.43;;;3.20;1.00;;;;;;5135420;27;20196;-69
2022/02/01 05:08:26;;;;;;;17.90;3.67;;;3.20;99.90;;;;;;5135225;27;20265;-69
2022/02/01 05:10:54;;;;;;;15.97;2.30;;;3.20;99.90;;;;;;5135448;27;20207;-69
2022/02/01 05:16:09;;;;;;;16.47;2.40;;;3.20;99.90;;;;;;5135360;27;20203;-69
2022/02/01 05:18:45;;;;;;;16.43;2.17;;;3.20;99.90;;;;;;5135326;27;20215;-69
2022/02/01 05:21:18;;;;;;;20.40;3.00;;;3.20;99.90;;;;;;5135301;27;20253;-69
2022/02/01 05:23:45;;;;;;;16.93;2.77;;;3.20;1.00;;;;;;5135414;27;20192;-69
2022/02/01 05:26:14;;;;;;;11.03;2.10;;;3.20;1.00;;;;;;5135253;27;20200;-69
2022/02/01 05:28:42;;;;;;;19.50;2.63;;;3.10;1.00;;;;;;5135361;27;20200;-69
2022/02/01 05:31:10;;;;;;;12.43;2.03;;;3.10;1.00;;;;;;5134535;27;20203;-69
2022/02/01 05:33:37;;;;;;;16.63;3.43;;;3.10;1.00;;;;;;5135184;27;20256;-69
2022/02/01 05:36:06;;;;;;;20.47;4.90;;;3.10;1.00;;;;;;5134747;27;20661;-69
2022/02/01 05:38:34;;;;;;;14.87;2.73;;;3.00;1.00;;;;;;5135021;27;20269;-69
2022/02/01 05:41:01;;;;;;;20.13;2.93;;;3.00;1.00;;;;;;5134745;27;20241;-69
2022/02/01 05:43:29;;;;;;;12.00;2.07;;;3.00;1.00;;;;;;5117843;27;20698;-69
2022/02/01 05:45:59;;;;;;;17.17;3.07;;;3.00;1.00;;;;;;5124555;27;20254;-69
2022/02/01 05:48:26;;;;;;;14.40;2.50;;;3.00;1.00;;;;;;5132959;27;20209;-69
2022/02/01 05:50:56;;;;;;;16.33;2.67;;;3.00;1.00;;;;;;5117085;27;20192;-69
2022/02/01 05:53:24;;;;;;;18.57;2.47;;;3.10;1.00;;;;;;5120779;27;20197;-69
2022/02/01 05:55:51;;;;;;;13.23;2.70;;;3.00;1.00;;;;;;5129647;27;20197;-69
2022/02/01 05:58:19;;;;;;;16.43;2.80;;;3.00;1.00;;;;;;5128476;27;20200;-69
2022/02/01 06:00:47;;;;;;;17.77;3.17;;;3.00;1.00;;;;;;5133395;27;20249;-69
2022/02/01 06:03:14;;;;;;;16.30;2.07;;;3.10;1.00;;;;;;5133318;27;20220;-69
2022/02/01 06:05:42;;;;;;;11.70;2.77;;;3.10;1.00;;;;;;5132456;27;20339;-69
2022/02/01 06:08:09;;;;;;;10.17;2.10;;;3.10;1.00;;;;;;5130076;27;20200;-69
2022/02/01 06:10:36;;;;;;;13.13;2.47;;;3.10;1.00;;;;;;5131215;27;20245;-69
2022/02/01 06:13:03;;;;;;;12.90;3.10;;;3.10;1.00;;;;;;5130275;27;20208;-69
2022/02/01 06:15:31;;;;;;;12.33;2.30;;;3.10;1.00;;;;;;5133707;27;20204;-69
2022/02/01 06:17:59;;;;;;;25.23;2.77;;;3.20;1.00;;;;;;5133670;27;20632;-69
2022/02/01 06:20:26;;;;;;;10.87;2.83;;;3.10;1.00;;;;;;5124906;27;20703;-69
2022/02/01 06:22:53;;;;;;;11.80;2.60;;;3.20;1.00;;;;;;5130726;27;20634;-69
2022/02/01 06:25:37;;;;;;;14.20;3.13;;;3.10;99.90;;;;;;5133192;27;20612;-69
2022/02/01 06:28:05;;;;;;;14.23;3.13;;;3.10;99.90;;;;;;5133543;27;20229;-69
2022/02/01 06:30:32;;;;;;;20.47;3.33;;;3.10;99.90;;;;;;5133772;27;20200;-69
2022/02/01 06:33:00;;;;;;;12.37;2.40;;;3.10;99.90;;;;;;5132884;27;20245;-69
2022/02/01 06:35:30;;;;;;;11.83;2.53;;;3.10;99.90;;;;;;5133490;27;20412;-69
2022/02/01 06:37:57;;;;;;;15.07;2.70;;;3.10;99.90;;;;;;5132795;27;20196;-69
2022/02/01 06:40:24;;;;;;;13.87;3.27;;;3.10;99.90;;;;;;5132017;27;20225;-69
2022/02/01 06:42:52;;;;;;;16.10;3.70;;;3.10;99.90;;;;;;5132857;27;20220;-69
2022/02/01 06:45:19;;;;;;;10.00;2.37;;;3.20;99.90;;;;;;5131539;27;20241;-69
2022/02/01 06:47:46;;;;;;;11.87;2.50;;;3.20;99.90;;;;;;5131663;27;20196;-69
2022/02/01 06:50:19;;;;;;;8.43;2.53;;;3.10;99.90;;;;;;5131870;27;20211;-69
2022/02/01 06:52:46;;;;;;;12.07;2.40;;;3.10;99.90;;;;;;5133425;27;20283;-69
2022/02/01 06:55:14;;;;;;;10.80;2.90;;;3.20;99.90;;;;;;5131411;27;20703;-69
2022/02/01 06:57:41;;;;;;;12.87;3.10;;;3.30;99.90;;;;;;5133549;27;20242;-69
2022/02/01 07:00:10;;;;;;;12.20;2.47;;;3.30;99.90;;;;;;5131505;27;20204;-69
2022/02/01 07:02:37;;;;;;;14.83;2.67;;;3.30;99.90;;;;;;5132871;27;20555;-69
2022/02/01 07:05:04;;;;;;;15.80;2.80;;;3.20;99.90;;;;;;5131393;27;20607;-69
2022/02/01 07:07:32;;;;;;;10.63;2.50;;;3.30;99.90;;;;;;5132169;27;20245;-69
2022/02/01 07:10:00;;;;;;;14.67;3.10;;;3.30;1.00;;;;;;5130870;27;20737;-69
2022/02/01 07:12:27;;;;;;;13.33;2.70;;;3.40;1.00;;;;;;5133279;27;20606;-69
2022/02/01 07:14:54;;;;;;;18.60;3.83;;;3.30;1.00;;;;;;5131408;27;20204;-69
2022/02/01 07:17:21;;;;;;;12.00;2.63;;;3.40;1.00;;;;;;5130523;27;20196;-69
2022/02/01 07:19:48;;;;;;;9.93;2.30;;;3.40;1.00;;;;;;5131389;27;20204;-69
2022/02/01 07:22:15;;;;;;;10.27;2.73;;;3.40;99.90;;;;;;5130384;27;20261;-69
2022/02/01 07:24:55;;;;;;;16.53;2.97;;;3.50;99.90;;;;;;5131542;27;20268;-69
2022/02/01 07:27:37;;;;;;;14.53;2.70;;;3.50;99.90;;;;;;5132347;27;20260;-69
2022/02/01 07:30:08;;;;;;;10.27;2.47;;;3.50;99.90;;;;;;5131393;27;20199;-69
2022/02/01 07:32:35;;;;;;;9.23;3.00;;;3.50;99.90;;;;;;5131004;27;20206;-69
2022/02/01 07:35:03;;;;;;;17.00;3.50;;;3.60;1.00;;;;;;5131193;27;20272;-69
2022/02/01 07:37:30;;;;;;;13.23;2.53;;;3.60;1.00;;;;;;5132513;27;20658;-69
2022/02/01 07:39:58;;;;;;;10.43;4.27;;;3.60;1.00;;;;;;5130847;27;20223;-69
2022/02/01 07:42:25;;;;;;;11.30;3.07;;;3.60;1.00;;;;;;5131756;27;20220;-74
2022/02/01 07:44:52;;;;;;;13.17;3.00;;;3.70;99.90;;;;;;5131889;27;20192;-74
2022/02/01 07:47:21;;;;;;;9.67;2.13;;;3.70;1.00;;;;;;5130627;27;20232;-74
2022/02/01 07:49:49;;;;;;;12.40;2.63;;;3.70;1.00;;;;;;5130487;27;20208;-74
2022/02/01 07:52:16;;;;;;;12.63;3.53;;;3.70;1.00;;;;;;5130838;27;20204;-74
2022/02/01 07:54:43;;;;;;;13.10;2.90;;;3.70;99.90;;;;;;5130918;27;20688;-74
2022/02/01 07:57:12;;;;;;;15.50;3.00;;;3.80;99.90;;;;;;5132116;27;20260;-74
2022/02/01 07:59:39;;;;;;;11.23;2.40;;;3.80;99.90;;;;;;5130383;27;20258;-74
2022/02/01 08:02:16;;;;;;;14.17;2.67;;;3.80;99.90;;;;;;5130701;27;20243;-74
2022/02/01 08:04:44;;;;;;;10.63;2.60;;;3.90;99.90;;;;;;5131203;27;20204;-74
2022/02/01 08:07:10;;;;;;;12.13;2.40;;;4.00;91.10;;;;;;5130934;27;20204;-74
2022/02/01 08:09:41;;;;;;;10.33;2.40;;;4.00;43.10;;;;;;5131700;27;20201;-74
2022/02/01 08:12:21;;;;;;;12.50;2.50;;;4.00;43.40;;;;;;5131553;27;20215;-74
2022/02/01 08:17:32;;;;;;;9.13;2.30;;;4.00;33.90;;;;;;5086487;27;20208;-74
2022/02/01 08:20:02;;;;;;;12.27;2.50;;;4.10;99.90;;;;;;5130682;27;20595;-74
2022/02/01 08:22:37;;;;;;;10.70;2.00;;;4.10;47.20;;;;;;5129732;28;20228;-74
2022/02/01 08:25:07;;;;;;;12.80;2.93;;;4.10;1.00;;;;;;5129866;28;20215;-74
2022/02/01 08:27:38;;;;;;;14.60;2.60;;;4.20;15.10;;;;;;5131189;28;20646;-74
2022/02/01 08:30:06;;;;;;;8.80;2.17;;;4.20;1.00;;;;;;5130316;28;20707;-74
2022/02/01 08:32:33;;;;;;;11.63;2.30;;;4.20;1.00;;;;;;5131474;28;20738;-74
2022/02/01 08:35:00;;;;;;;8.83;2.03;;;4.20;1.00;;;;;;5133929;27;20200;-74
2022/02/01 08:37:28;;;;;;;4.30;1.83;;;4.30;1.00;;;;;;5135586;27;20232;-74
2022/02/01 08:39:55;;;;;;;11.20;2.20;;;4.30;1.00;;;;;;5134820;27;20249;-74
2022/02/01 08:42:22;;;;;;;11.77;3.07;;;4.30;1.00;;;;;;5135418;27;20611;-74
2022/02/01 08:44:52;;;;;;;6.30;2.30;;;4.30;1.00;;;;;;5133674;27;20204;-74
2022/02/01 08:47:20;;;;;;;8.63;2.80;;;4.30;1.00;;;;;;5134009;27;20302;-74
2022/02/01 08:49:47;;;;;;;10.67;2.67;;;4.40;1.00;;;;;;5134258;27;20204;-74
2022/02/01 08:52:22;;;;;;;12.93;3.20;;;4.40;1.00;;;;;;5134233;27;20634;-74
2022/02/01 08:54:51;;;;;;;9.53;2.50;;;4.40;99.90;;;;;;5133262;27;20300;-75
2022/02/01 08:57:22;;;;;;;11.77;2.70;;;4.50;99.90;;;;;;5135378;27;20239;-74
2022/02/01 08:59:52;;;;;;;11.63;3.00;;;4.50;99.90;;;;;;5135353;27;20268;-74
2022/02/01 09:02:24;;;;;;;12.67;3.40;;;4.50;99.90;;;;;;5134337;27;20208;-75
2022/02/01 09:04:52;;;;;;;15.73;3.97;;;4.50;99.90;;;;;;5133547;27;20200;-75
2022/02/01 09:07:19;;;;;;;12.63;3.57;;;4.50;31.80;;;;;;5134750;27;20199;-76
2022/02/01 09:09:46;;;;;;;13.73;3.13;;;4.50;1.00;;;;;;5132974;27;20237;-75
2022/02/01 09:12:14;;;;;;;10.80;3.17;;;4.60;1.00;;;;;;5134227;27;20204;-76
2022/02/01 09:14:41;;;;;;;13.40;3.87;;;4.60;1.00;;;;;;5134747;27;20203;-76
2022/02/01 09:17:10;;;;;;;13.43;4.30;;;4.60;1.00;;;;;;5135400;27;20235;-76
2022/02/01 09:19:37;;;;;;;11.43;3.77;;;4.60;1.00;;;;;;5134864;27;20254;-76
2022/02/01 09:22:05;;;;;;;16.43;3.80;;;4.60;1.00;;;;;;5132998;27;20204;-73
2022/02/01 09:24:32;;;;;;;11.27;3.80;;;4.70;1.00;;;;;;5133013;27;20224;-73
2022/02/01 09:27:00;;;;;;;15.87;5.07;;;4.80;99.90;;;;;;5133973;27;20200;-73
2022/02/01 09:29:27;;;;;;;17.27;4.60;;;5.00;1.00;;;;;;5135060;27;20193;-75
2022/02/01 09:31:55;;;;;;;12.20;4.10;;;4.90;99.90;;;;;;5132352;27;20208;-75
2022/02/01 09:34:24;;;;;;;12.13;3.83;;;4.90;99.90;;;;;;5134429;27;20207;-75
2022/02/01 09:36:54;;;;;;;13.10;4.30;;;4.80;75.70;;;;;;5132760;27;20650;-75
2022/02/01 09:39:23;;;;;;;11.47;4.17;;;4.80;99.90;;;;;;5133155;27;20200;-75
2022/02/01 09:41:51;;;;;;;9.23;4.00;;;4.90;1.00;;;;;;5134271;27;20340;-75
2022/02/01 09:44:19;;;;;;;12.93;3.60;;;4.90;1.00;;;;;;5134431;27;20272;-75
2022/02/01 09:46:48;;;;;;;8.83;3.40;;;4.90;1.00;;;;;;5132274;27;20196;-75
2022/02/01 09:49:17;;;;;;;15.07;5.47;;;5.00;1.00;;;;;;5134437;27;20212;-75
2022/02/01 09:51:48;;;;;;;13.03;4.80;;;5.00;1.00;;;;;;5134297;27;20221;-75
2022/02/01 09:54:15;;;;;;;14.70;5.70;;;5.00;1.00;;;;;;5134483;27;20197;-75
2022/02/01 09:56:42;;;;;;;11.23;4.70;;;5.10;99.90;;;;;;5133982;27;20276;-75
2022/02/01 09:59:15;;;;;;;12.93;4.90;;;5.10;99.90;;;;;;5133196;27;20227;-75
2022/02/01 10:01:46;;;;;;;15.33;6.23;;;5.10;67.20;;;;;;5133320;27;20655;-75
2022/02/01 10:04:13;;;;;;;10.60;6.03;;;5.10;99.90;;;;;;5132493;27;20448;-75
2022/02/01 10:06:41;;;;;;;13.33;5.20;;;5.10;1.00;;;;;;5134115;27;20245;-75
2022/02/01 10:09:13;;;;;;;13.87;5.93;;;5.20;89.00;;;;;;5134206;27;20200;-75
2022/02/01 10:11:42;;;;;;;9.23;4.60;;;5.20;99.90;;;;;;5134305;27;20261;-75
2022/02/01 10:14:13;;;;;;;10.33;5.43;;;5.20;99.90;;;;;;5134408;27;20200;-75
2022/02/01 10:16:44;;;;;;;16.63;5.90;;;5.30;1.00;;;;;;5134008;27;20200;-76
2022/02/01 10:19:13;;;;;;;13.30;5.30;;;5.30;12.70;;;;;;5134049;27;20204;-75
2022/02/01 10:21:52;;;;;;;13.37;5.70;;;5.30;1.00;;;;;;5133896;27;20571;-75
2022/02/01 10:24:31;;;;;;;10.97;6.03;;;5.30;99.90;;;;;;5133826;27;20220;-75
2022/02/01 10:27:09;;;;;;;10.63;5.80;;;5.30;99.90;;;;;;5134045;27;20260;-75
2022/02/01 10:29:38;;;;;;;12.80;5.97;;;5.30;99.90;;;;;;5133850;27;20245;-75
2022/02/01 10:32:21;;;;;;;14.30;5.50;;;5.20;1.00;;;;;;5134339;27;20393;-75
2022/02/01 10:34:49;;;;;;;11.37;5.63;;;5.20;1.00;;;;;;5133960;27;20201;-75
2022/02/01 10:37:19;;;;;;;12.07;5.40;;;5.20;1.00;;;;;;5133859;27;20716;-75
2022/02/01 10:39:49;;;;;;;12.73;5.90;;;5.20;1.00;;;;;;5133588;27;20196;-75
2022/02/01 10:42:17;;;;;;;12.97;5.80;;;5.10;40.70;;;;;;5133712;27;20201;-75
2022/02/01 10:44:46;;;;;;;15.10;5.97;;;5.00;34.10;;;;;;5133285;27;20686;-75
2022/02/01 10:47:15;;;;;;;14.93;6.93;;;4.90;99.90;;;;;;5133517;27;20245;-75
2022/02/01 10:49:43;;;;;;;15.93;6.53;;;4.90;1.00;;;;;;5133588;27;20250;-75
2022/02/01 10:52:12;;;;;;;10.53;6.03;;;5.00;1.00;;;;;;5133731;27;20462;-75
2022/02/01 10:54:41;;;;;;;13.33;6.47;;;5.00;1.00;;;;;;5133582;27;20287;-75
2022/02/01 10:57:11;;;;;;;12.43;7.13;;;5.00;1.00;;;;;;5132286;27;20197;-75
2022/02/01 10:59:39;;;;;;;12.97;6.90;;;4.90;99.90;;;;;;5133512;27;20200;-75
2022/02/01 11:02:07;;;;;;;10.77;6.50;;;4.80;1.00;;;;;;5133176;27;20196;-75
2022/02/01 11:04:36;;;;;;;11.37;6.50;;;4.80;1.00;;;;;;5132706;27;20562;-75
2022/02/01 11:07:03;;;;;;;11.07;6.43;;;4.80;99.90;;;;;;5133150;27;20235;-75
2022/02/01 11:09:32;;;;;;;12.00;6.60;;;4.80;99.90;;;;;;5133263;27;20304;-75
2022/02/01 11:12:07;;;;;;;11.87;5.90;;;4.80;99.90;;;;;;5132868;27;20249;-75
2022/02/01 11:14:41;;;;;;;10.20;5.97;;;4.80;1.00;;;;;;5132710;27;20558;-70
2022/02/01 11:17:11;;;;;;;10.57;5.87;;;4.80;1.00;;;;;;5132781;27;20574;-75
2022/02/01 11:19:55;;;;;;;11.23;6.07;;;4.70;1.00;;;;;;5132738;27;20204;-75
2022/02/01 11:22:25;;;;;;;11.57;5.87;;;4.70;1.00;;;;;;5132831;27;20248;-75
2022/02/01 11:24:55;;;;;;;9.70;5.77;;;4.70;1.00;;;;;;5132631;27;20731;-75
2022/02/01 11:27:39;;;;;;;7.90;6.27;;;4.70;1.00;;;;;;5133219;27;20200;-75
2022/02/01 11:30:12;;;;;;;10.27;5.77;;;4.70;93.00;;;;;;5132765;27;20192;-75
2022/02/01 11:32:48;;;;;;;13.60;6.07;;;4.70;99.90;;;;;;5132590;27;20291;-75
2022/02/01 11:35:21;;;;;;;9.20;6.20;;;4.70;99.90;;;;;;5132451;27;20759;-75
2022/02/01 11:37:50;;;;;;;11.40;6.10;;;4.70;99.90;;;;;;5132522;27;20291;-75
2022/02/01 11:40:19;;;;;;;8.93;5.87;;;4.70;99.90;;;;;;5132526;27;20196;-75
2022/02/01 11:42:55;;;;;;;8.70;5.70;;;4.70;99.90;;;;;;5125443;27;20209;-75
2022/02/01 11:45:35;;;;;;;8.37;5.80;;;4.70;99.90;;;;;;5108425;28;20216;-75
2022/02/01 11:48:16;;;;;;;9.93;5.43;;;4.70;99.90;;;;;;5115334;27;20197;-75
2022/02/01 11:50:47;;;;;;;9.77;5.47;;;4.80;99.90;;;;;;5130840;27;20636;-75
2022/02/01 11:53:23;;;;;;;8.93;5.30;;;4.80;99.90;;;;;;5130439;27;20543;-75
2022/02/01 11:55:52;;;;;;;12.23;4.40;;;4.80;99.90;;;;;;5130338;27;20242;-75
2022/02/01 11:58:34;;;;;;;8.37;4.60;;;4.80;99.90;;;;;;5132179;27;20700;-75
2022/02/01 12:01:06;;;;;;;9.27;4.63;;;4.80;99.90;;;;;;5130774;27;20215;-75
2022/02/01 12:03:39;;;;;;;8.23;4.67;;;4.90;99.90;;;;;;5129486;27;20377;-75
2022/02/01 12:06:09;;;;;;;9.67;4.40;;;4.90;99.90;;;;;;5130874;27;20204;-75
2022/02/01 12:08:41;;;;;;;9.70;4.87;;;4.90;99.90;;;;;;5131783;27;20219;-75
2022/02/01 12:11:10;;;;;;;7.27;4.37;;;4.90;99.90;;;;;;5131671;27;20317;-75
2022/02/01 12:13:37;;;;;;;8.30;4.33;;;5.00;99.90;;;;;;5130209;27;20320;-76
2022/02/01 12:16:10;;;;;;;6.43;4.37;;;5.00;99.90;;;;;;5130338;27;20211;-75
2022/02/01 12:18:47;;;;;;;7.90;4.07;;;5.00;99.90;;;;;;5130960;27;20589;-73
2022/02/01 12:21:30;;;;;;;3.77;3.40;;;5.10;99.90;;;;;;5129175;27;20204;-73
2022/02/01 12:23:59;;;;;;;3.93;2.57;;;5.10;99.90;;;;;;5128863;28;20220;-77
2022/02/01 12:26:28;;;;;;;4.03;2.43;;;5.20;99.90;;;;;;5131497;28;20327;-74
2022/02/01 12:28:57;;;;;;;3.13;2.83;;;5.20;99.90;;;;;;5131303;28;20204;-76
2022/02/01 12:31:27;;;;;;;3.83;2.10;;;5.30;99.90;;;;;;5130643;27;20232;-75
2022/02/01 12:33:56;;;;;;;4.67;2.43;;;5.30;99.90;;;;;;5131791;28;20200;-75
2022/02/01 12:36:28;;;;;;;1.73;1.63;;;5.40;99.90;;;;;;5131107;28;20643;-75
2022/02/01 12:39:03;;;;;;;1.93;1.73;;;5.40;99.90;;;;;;5129787;28;20207;-76
2022/02/01 12:41:33;;;;;;;2.07;1.87;;;5.50;99.90;;;;;;5131764;28;20257;-76
2022/02/01 12:46:51;;;;;;;1.53;1.43;;;5.70;99.90;;;;;;5130339;28;20198;-76
2022/02/01 12:49:18;;;;;;;1.90;1.50;;;5.70;99.90;;;;;;5130123;28;20236;-76
2022/02/01 12:51:48;;;;;;;1.80;1.70;;;5.70;99.90;;;;;;5131207;28;20241;-75
2022/02/01 12:54:23;;;;;;;1.50;1.40;;;5.70;99.90;;;;;;5129047;28;20200;-75
2022/02/01 12:56:50;;;;;;;1.33;1.30;;;5.80;99.90;;;;;;5131269;28;20717;-76
2022/02/01 12:59:21;;;;;;;1.57;1.47;;;5.80;99.90;;;;;;5131169;28;20287;-75
2022/02/01 13:01:50;;;;;;;2.03;1.40;;;5.80;99.90;;;;;;5130304;28;20212;-76
2022/02/01 13:04:24;;;;;;;1.27;1.17;;;5.80;99.90;;;;;;5130941;28;20226;-75
2022/02/01 13:06:53;;;;;;;1.57;1.40;;;5.80;99.90;;;;;;5131384;28;20257;-76
2022/02/01 13:15:09;;;;;;;2.23;1.47;;;5.90;99.90;;;;;;5131128;28;20199;-75
2022/02/01 13:17:45;;;;;;;1.80;1.70;;;5.90;99.90;;;;;;5129949;28;20307;-75
2022/02/01 13:20:19;;;;;;;2.13;1.57;;;5.90;99.90;;;;;;5130017;27;20501;-75
2022/02/01 13:22:56;;;;;;;1.30;1.20;;;5.90;99.90;;;;;;5126501;27;20210;-75
2022/02/01 13:25:32;;;;;;;1.43;1.33;;;5.80;99.90;;;;;;5121715;27;20264;-74
2022/02/01 13:28:02;;;;;;;1.40;1.30;;;5.80;99.90;;;;;;5122789;27;20232;-74
2022/02/01 13:30:29;;;;;;;1.30;1.20;;;5.80;99.90;;;;;;5129373;27;20265;-74
2022/02/01 13:33:09;;;;;;;1.20;1.20;;;5.90;99.90;;;;;;5128677;27;20203;-74
2022/02/01 13:35:50;;;;;;;1.40;1.40;;;5.90;99.90;;;;;;5128872;27;21162;-74
2022/02/01 13:38:17;;;;;;;1.73;1.40;;;5.80;99.90;;;;;;5126839;27;20200;-74
2022/02/01 13:40:44;;;;;;;1.30;1.20;;;5.80;99.90;;;;;;5125973;27;20249;-74
2022/02/01 13:43:20;;;;;;;2.37;1.20;;;5.80;99.90;;;;;;5129660;27;20196;-74
2022/02/01 13:45:49;;;;;;;1.60;1.50;;;5.90;99.90;;;;;;5123578;27;21431;-74
2022/02/01 13:48:23;;;;;;;1.67;1.57;;;5.90;99.90;;;;;;5126894;27;20551;-74
2022/02/01 13:50:50;;;;;;;2.30;1.60;;;5.90;99.90;;;;;;5124758;27;20204;-74
2022/02/01 13:53:20;;;;;;;1.90;1.80;;;6.00;99.90;;;;;;5128012;27;20200;-74
2022/02/01 13:55:57;;;;;;;1.53;1.43;;;6.00;99.90;;;;;;5122043;27;20244;-74
2022/02/01 13:58:24;;;;;;;2.03;1.93;;;6.00;99.90;;;;;;5132865;27;20200;-74
2022/02/01 14:00:54;;;;;;;1.83;1.73;;;6.00;99.90;;;;;;5128148;27;20514;-74
2022/02/01 14:03:35;;;;;;;2.20;2.00;;;6.00;99.90;;;;;;5126565;27;20199;-74
2022/02/01 14:06:10;;;;;;;1.90;1.80;;;6.00;99.90;;;;;;5126805;27;20224;-74
2022/02/01 14:08:46;;;;;;;2.00;1.90;;;6.00;99.90;;;;;;5127676;27;20209;-74
2022/02/01 14:11:48;;;;;;;1.80;1.70;;;6.00;99.90;;;;;;5127571;27;20743;-74